Disclaimer

Please do not use the information listed here in-flight or in-navigation, as they are not provided to us by the airports but are provided by volunteers, so they might be outdated.

Search


Regions


Airport information page

Radio informations:
Tower (TWR) - 119.4 MHz
INFO - 119.4 MHz

Airport informations:
Latitude: 48° 46' 33.86" N
Longitude: 004° 11' 04.17" E
Elevation: 587 feet - 179 meters
Operating hours: Remarks
Operating agency: Civil government, landing fees and diplomatic clearance may be required
Timezone: UTC+1(+2DT) - Last Sunday in March to last Sunday in October
Fuel: Jet A1, without icing nhibitor.

Runway information:
10/28 - 12664 x 148 feet< - >3860 x 45 meters

Recent METARs:
LFOK 181930Z AUTO 04012KT CAVOK 03/M01 Q1019 NOSIG
LFOK 182000Z AUTO 04011KT CAVOK 02/M01 Q1019 NOSIG
LFOK 182030Z AUTO 05010KT CAVOK 02/M01 Q1019 NOSIG

Airport on the map: